sensor_id;sensor_type;location;lat;lon;timestamp;P1;durP1;ratioP1;P2;durP2;ratioP2
635;SDS011;302;50.206;8.196;2023-08-17T00:00:54;9.73;;;2.37;;
635;SDS011;302;50.206;8.196;2023-08-17T00:03:19;2.35;;;2.15;;
635;SDS011;302;50.206;8.196;2023-08-17T00:05:44;1.90;;;1.60;;
635;SDS011;302;50.206;8.196;2023-08-17T00:08:09;2.23;;;1.80;;
635;SDS011;302;50.206;8.196;2023-08-17T00:10:35;5.88;;;2.33;;
635;SDS011;302;50.206;8.196;2023-08-17T00:13:00;2.03;;;1.60;;
635;SDS011;302;50.206;8.196;2023-08-17T00:15:27;2.97;;;2.10;;
635;SDS011;302;50.206;8.196;2023-08-17T00:17:52;1.80;;;1.70;;
635;SDS011;302;50.206;8.196;2023-08-17T00:20:17;1.67;;;1.58;;
635;SDS011;302;50.206;8.196;2023-08-17T00:22:42;1.60;;;1.50;;
635;SDS011;302;50.206;8.196;2023-08-17T00:25:07;5.77;;;2.20;;
635;SDS011;302;50.206;8.196;2023-08-17T00:27:33;2.03;;;1.70;;
635;SDS011;302;50.206;8.196;2023-08-17T00:29:58;2.13;;;1.93;;
635;SDS011;302;50.206;8.196;2023-08-17T00:32:23;2.53;;;2.27;;
635;SDS011;302;50.206;8.196;2023-08-17T00:34:48;5.47;;;2.10;;
635;SDS011;302;50.206;8.196;2023-08-17T00:37:13;1.90;;;1.80;;
635;SDS011;302;50.206;8.196;2023-08-17T00:39:39;2.70;;;2.50;;
635;SDS011;302;50.206;8.196;2023-08-17T00:42:04;2.93;;;2.73;;
635;SDS011;302;50.206;8.196;2023-08-17T00:44:29;3.83;;;3.53;;
635;SDS011;302;50.206;8.196;2023-08-17T00:46:54;4.27;;;3.83;;
635;SDS011;302;50.206;8.196;2023-08-17T00:49:20;3.63;;;3.30;;
635;SDS011;302;50.206;8.196;2023-08-17T00:51:45;3.10;;;2.60;;
635;SDS011;302;50.206;8.196;2023-08-17T00:54:10;4.50;;;4.07;;
635;SDS011;302;50.206;8.196;2023-08-17T00:56:36;6.30;;;5.17;;
635;SDS011;302;50.206;8.196;2023-08-17T00:59:01;5.73;;;5.23;;
635;SDS011;302;50.206;8.196;2023-08-17T01:01:26;5.17;;;4.13;;
635;SDS011;302;50.206;8.196;2023-08-17T01:03:51;8.77;;;3.87;;
635;SDS011;302;50.206;8.196;2023-08-17T01:06:18;4.00;;;3.27;;
635;SDS011;302;50.206;8.196;2023-08-17T01:08:43;3.95;;;3.40;;
635;SDS011;302;50.206;8.196;2023-08-17T01:13:38;4.13;;;3.83;;
635;SDS011;302;50.206;8.196;2023-08-17T01:16:09;5.47;;;4.25;;
635;SDS011;302;50.206;8.196;2023-08-17T01:18:35;9.65;;;5.10;;
635;SDS011;302;50.206;8.196;2023-08-17T01:21:02;4.88;;;4.40;;
635;SDS011;302;50.206;8.196;2023-08-17T01:23:27;5.60;;;4.85;;
635;SDS011;302;50.206;8.196;2023-08-17T01:25:52;5.73;;;5.13;;
635;SDS011;302;50.206;8.196;2023-08-17T01:28:18;6.57;;;4.27;;
635;SDS011;302;50.206;8.196;2023-08-17T01:30:47;5.40;;;4.17;;
635;SDS011;302;50.206;8.196;2023-08-17T01:33:18;4.97;;;4.03;;
635;SDS011;302;50.206;8.196;2023-08-17T01:35:51;4.28;;;3.85;;
635;SDS011;302;50.206;8.196;2023-08-17T01:38:18;3.45;;;3.15;;
635;SDS011;302;50.206;8.196;2023-08-17T01:40:46;3.67;;;3.38;;
635;SDS011;302;50.206;8.196;2023-08-17T01:43:12;9.98;;;4.60;;
635;SDS011;302;50.206;8.196;2023-08-17T01:45:38;3.53;;;3.22;;
635;SDS011;302;50.206;8.196;2023-08-17T01:48:03;5.03;;;3.53;;
635;SDS011;302;50.206;8.196;2023-08-17T01:50:28;3.50;;;3.20;;
635;SDS011;302;50.206;8.196;2023-08-17T01:52:54;4.27;;;3.20;;
635;SDS011;302;50.206;8.196;2023-08-17T01:55:20;4.90;;;3.10;;
635;SDS011;302;50.206;8.196;2023-08-17T01:57:46;4.53;;;3.05;;
635;SDS011;302;50.206;8.196;2023-08-17T02:00:11;3.92;;;2.55;;
635;SDS011;302;50.206;8.196;2023-08-17T02:02:36;4.40;;;2.57;;
635;SDS011;302;50.206;8.196;2023-08-17T02:05:02;4.50;;;2.47;;
635;SDS011;302;50.206;8.196;2023-08-17T02:07:27;2.70;;;2.50;;
635;SDS011;302;50.206;8.196;2023-08-17T02:09:52;5.90;;;2.80;;
635;SDS011;302;50.206;8.196;2023-08-17T02:12:18;3.58;;;2.60;;
635;SDS011;302;50.206;8.196;2023-08-17T02:14:43;7.22;;;2.55;;
635;SDS011;302;50.206;8.196;2023-08-17T02:17:08;3.40;;;3.10;;
635;SDS011;302;50.206;8.196;2023-08-17T02:19:33;4.33;;;2.10;;
635;SDS011;302;50.206;8.196;2023-08-17T02:21:58;5.65;;;3.42;;
635;SDS011;302;50.206;8.196;2023-08-17T02:24:24;5.90;;;4.10;;
635;SDS011;302;50.206;8.196;2023-08-17T02:26:49;5.37;;;4.03;;
635;SDS011;302;50.206;8.196;2023-08-17T02:29:14;4.15;;;3.63;;
635;SDS011;302;50.206;8.196;2023-08-17T02:31:39;3.78;;;3.45;;
635;SDS011;302;50.206;8.196;2023-08-17T02:34:04;3.42;;;3.10;;
635;SDS011;302;50.206;8.196;2023-08-17T02:36:30;3.20;;;2.90;;
635;SDS011;302;50.206;8.196;2023-08-17T02:38:55;3.90;;;3.00;;
635;SDS011;302;50.206;8.196;2023-08-17T02:41:20;4.72;;;2.85;;
635;SDS011;302;50.206;8.196;2023-08-17T02:43:45;4.10;;;3.07;;
635;SDS011;302;50.206;8.196;2023-08-17T02:46:11;3.13;;;2.83;;
635;SDS011;302;50.206;8.196;2023-08-17T02:48:36;10.73;;;4.17;;
635;SDS011;302;50.206;8.196;2023-08-17T02:51:01;3.83;;;3.20;;
635;SDS011;302;50.206;8.196;2023-08-17T02:53:26;5.73;;;3.10;;
635;SDS011;302;50.206;8.196;2023-08-17T02:55:51;2.40;;;2.20;;
635;SDS011;302;50.206;8.196;2023-08-17T02:58:16;4.73;;;3.47;;
635;SDS011;302;50.206;8.196;2023-08-17T03:00:42;3.83;;;3.37;;
635;SDS011;302;50.206;8.196;2023-08-17T03:03:07;3.50;;;2.75;;
635;SDS011;302;50.206;8.196;2023-08-17T03:05:33;3.87;;;3.40;;
635;SDS011;302;50.206;8.196;2023-08-17T03:07:58;2.90;;;2.60;;
635;SDS011;302;50.206;8.196;2023-08-17T03:10:23;3.15;;;2.60;;
635;SDS011;302;50.206;8.196;2023-08-17T03:12:50;3.38;;;3.00;;
635;SDS011;302;50.206;8.196;2023-08-17T03:15:15;6.53;;;3.40;;
635;SDS011;302;50.206;8.196;2023-08-17T03:17:40;6.47;;;3.53;;
635;SDS011;302;50.206;8.196;2023-08-17T03:20:05;4.13;;;3.60;;
635;SDS011;302;50.206;8.196;2023-08-17T03:22:31;4.03;;;3.30;;
635;SDS011;302;50.206;8.196;2023-08-17T03:24:56;4.60;;;4.17;;
635;SDS011;302;50.206;8.196;2023-08-17T03:27:21;4.13;;;3.70;;
635;SDS011;302;50.206;8.196;2023-08-17T03:29:47;4.77;;;4.13;;
635;SDS011;302;50.206;8.196;2023-08-17T03:32:12;5.00;;;3.65;;
635;SDS011;302;50.206;8.196;2023-08-17T03:34:37;5.15;;;3.70;;
635;SDS011;302;50.206;8.196;2023-08-17T03:37:03;4.15;;;3.67;;
635;SDS011;302;50.206;8.196;2023-08-17T03:39:28;4.80;;;4.03;;
635;SDS011;302;50.206;8.196;2023-08-17T03:41:53;6.18;;;3.95;;
635;SDS011;302;50.206;8.196;2023-08-17T03:44:18;5.53;;;3.70;;
635;SDS011;302;50.206;8.196;2023-08-17T03:46:44;3.85;;;3.42;;
635;SDS011;302;50.206;8.196;2023-08-17T03:49:09;5.80;;;4.37;;
635;SDS011;302;50.206;8.196;2023-08-17T03:51:34;5.17;;;3.93;;
635;SDS011;302;50.206;8.196;2023-08-17T03:53:59;6.05;;;4.47;;
635;SDS011;302;50.206;8.196;2023-08-17T03:56:24;5.40;;;4.20;;
635;SDS011;302;50.206;8.196;2023-08-17T03:58:50;5.65;;;3.92;;
635;SDS011;302;50.206;8.196;2023-08-17T04:01:15;4.67;;;4.13;;
635;SDS011;302;50.206;8.196;2023-08-17T04:03:40;4.20;;;3.80;;
635;SDS011;302;50.206;8.196;2023-08-17T04:06:06;5.27;;;4.73;;
635;SDS011;302;50.206;8.196;2023-08-17T04:08:32;5.90;;;4.40;;
635;SDS011;302;50.206;8.196;2023-08-17T04:10:57;6.63;;;4.60;;
635;SDS011;302;50.206;8.196;2023-08-17T04:13:22;5.37;;;4.50;;
635;SDS011;302;50.206;8.196;2023-08-17T04:15:47;7.90;;;4.95;;
635;SDS011;302;50.206;8.196;2023-08-17T04:18:12;7.85;;;5.43;;
635;SDS011;302;50.206;8.196;2023-08-17T04:20:37;9.90;;;6.00;;
635;SDS011;302;50.206;8.196;2023-08-17T04:23:02;7.43;;;6.00;;
635;SDS011;302;50.206;8.196;2023-08-17T04:25:28;9.67;;;6.23;;
635;SDS011;302;50.206;8.196;2023-08-17T04:27:53;8.17;;;6.03;;
635;SDS011;302;50.206;8.196;2023-08-17T04:30:18;8.32;;;6.68;;
635;SDS011;302;50.206;8.196;2023-08-17T04:32:44;9.07;;;7.83;;
635;SDS011;302;50.206;8.196;2023-08-17T04:35:09;8.10;;;5.90;;
635;SDS011;302;50.206;8.196;2023-08-17T04:37:35;8.67;;;7.30;;
635;SDS011;302;50.206;8.196;2023-08-17T04:40:00;9.03;;;6.60;;
635;SDS011;302;50.206;8.196;2023-08-17T04:42:25;10.13;;;7.37;;
635;SDS011;302;50.206;8.196;2023-08-17T04:44:50;7.67;;;6.10;;
635;SDS011;302;50.206;8.196;2023-08-17T04:47:15;8.77;;;6.55;;
635;SDS011;302;50.206;8.196;2023-08-17T04:49:41;8.33;;;7.30;;
635;SDS011;302;50.206;8.196;2023-08-17T04:52:06;8.10;;;6.73;;
635;SDS011;302;50.206;8.196;2023-08-17T04:54:31;8.17;;;7.10;;
635;SDS011;302;50.206;8.196;2023-08-17T04:56:56;9.18;;;6.97;;
635;SDS011;302;50.206;8.196;2023-08-17T04:59:21;10.35;;;7.65;;
635;SDS011;302;50.206;8.196;2023-08-17T05:01:47;11.02;;;7.57;;
635;SDS011;302;50.206;8.196;2023-08-17T05:04:12;9.60;;;6.97;;
635;SDS011;302;50.206;8.196;2023-08-17T05:06:37;11.17;;;7.93;;
635;SDS011;302;50.206;8.196;2023-08-17T05:09:03;10.85;;;8.40;;
635;SDS011;302;50.206;8.196;2023-08-17T05:11:29;13.50;;;6.97;;
635;SDS011;302;50.206;8.196;2023-08-17T05:13:54;9.38;;;7.15;;
635;SDS011;302;50.206;8.196;2023-08-17T05:16:19;9.38;;;7.18;;
635;SDS011;302;50.206;8.196;2023-08-17T05:18:44;10.00;;;8.35;;
635;SDS011;302;50.206;8.196;2023-08-17T05:21:09;9.55;;;7.18;;
635;SDS011;302;50.206;8.196;2023-08-17T05:23:34;8.87;;;7.47;;
635;SDS011;302;50.206;8.196;2023-08-17T05:26:00;10.93;;;7.82;;
635;SDS011;302;50.206;8.196;2023-08-17T05:28:25;9.90;;;7.37;;
635;SDS011;302;50.206;8.196;2023-08-17T05:30:51;11.13;;;8.10;;
635;SDS011;302;50.206;8.196;2023-08-17T05:33:16;10.70;;;8.33;;
635;SDS011;302;50.206;8.196;2023-08-17T05:35:41;9.48;;;8.05;;
635;SDS011;302;50.206;8.196;2023-08-17T05:38:07;11.50;;;8.77;;
635;SDS011;302;50.206;8.196;2023-08-17T05:40:32;13.37;;;9.20;;
635;SDS011;302;50.206;8.196;2023-08-17T05:42:57;11.77;;;8.40;;
635;SDS011;302;50.206;8.196;2023-08-17T05:45:23;11.40;;;9.20;;
635;SDS011;302;50.206;8.196;2023-08-17T05:47:48;11.90;;;9.00;;
635;SDS011;302;50.206;8.196;2023-08-17T05:50:13;14.80;;;10.02;;
635;SDS011;302;50.206;8.196;2023-08-17T05:52:40;11.50;;;8.52;;
635;SDS011;302;50.206;8.196;2023-08-17T05:55:05;13.30;;;10.52;;
635;SDS011;302;50.206;8.196;2023-08-17T05:57:30;12.27;;;9.63;;
635;SDS011;302;50.206;8.196;2023-08-17T05:59:55;12.40;;;10.13;;
635;SDS011;302;50.206;8.196;2023-08-17T06:02:21;12.23;;;9.20;;
635;SDS011;302;50.206;8.196;2023-08-17T06:04:47;14.50;;;10.18;;
635;SDS011;302;50.206;8.196;2023-08-17T06:07:12;11.50;;;9.52;;
635;SDS011;302;50.206;8.196;2023-08-17T06:09:37;12.30;;;9.27;;
635;SDS011;302;50.206;8.196;2023-08-17T06:12:02;12.55;;;10.18;;
635;SDS011;302;50.206;8.196;2023-08-17T06:14:28;12.60;;;10.00;;
635;SDS011;302;50.206;8.196;2023-08-17T06:16:53;11.63;;;9.00;;
635;SDS011;302;50.206;8.196;2023-08-17T06:19:18;10.13;;;9.03;;
635;SDS011;302;50.206;8.196;2023-08-17T06:21:43;12.70;;;10.23;;
635;SDS011;302;50.206;8.196;2023-08-17T06:24:08;13.20;;;10.13;;
635;SDS011;302;50.206;8.196;2023-08-17T06:26:33;13.03;;;10.17;;
635;SDS011;302;50.206;8.196;2023-08-17T06:28:58;12.57;;;9.40;;
635;SDS011;302;50.206;8.196;2023-08-17T06:31:24;13.77;;;10.10;;
635;SDS011;302;50.206;8.196;2023-08-17T06:33:52;11.95;;;9.75;;
635;SDS011;302;50.206;8.196;2023-08-17T06:36:17;11.53;;;9.00;;
635;SDS011;302;50.206;8.196;2023-08-17T06:38:42;10.97;;;9.33;;
635;SDS011;302;50.206;8.196;2023-08-17T06:41:08;10.50;;;9.03;;
635;SDS011;302;50.206;8.196;2023-08-17T06:43:33;8.47;;;7.60;;
635;SDS011;302;50.206;8.196;2023-08-17T06:45:58;10.30;;;8.47;;
635;SDS011;302;50.206;8.196;2023-08-17T06:48:25;11.23;;;9.10;;
635;SDS011;302;50.206;8.196;2023-08-17T06:50:50;9.67;;;7.60;;
635;SDS011;302;50.206;8.196;2023-08-17T06:53:15;10.45;;;9.30;;
635;SDS011;302;50.206;8.196;2023-08-17T06:55:40;10.93;;;9.20;;
635;SDS011;302;50.206;8.196;2023-08-17T06:58:05;13.07;;;9.77;;
635;SDS011;302;50.206;8.196;2023-08-17T07:00:31;9.60;;;8.52;;
635;SDS011;302;50.206;8.196;2023-08-17T07:02:56;10.07;;;9.07;;
635;SDS011;302;50.206;8.196;2023-08-17T07:05:21;8.77;;;7.95;;
635;SDS011;302;50.206;8.196;2023-08-17T07:07:46;8.10;;;7.30;;
635;SDS011;302;50.206;8.196;2023-08-17T07:10:12;7.60;;;6.80;;
635;SDS011;302;50.206;8.196;2023-08-17T07:12:37;7.37;;;6.63;;
635;SDS011;302;50.206;8.196;2023-08-17T07:15:02;7.47;;;6.77;;
635;SDS011;302;50.206;8.196;2023-08-17T07:17:29;8.18;;;7.32;;
635;SDS011;302;50.206;8.196;2023-08-17T07:19:54;8.65;;;7.05;;
635;SDS011;302;50.206;8.196;2023-08-17T07:22:19;7.55;;;6.85;;
635;SDS011;302;50.206;8.196;2023-08-17T07:24:44;8.27;;;7.47;;
635;SDS011;302;50.206;8.196;2023-08-17T07:27:09;7.70;;;7.10;;
635;SDS011;302;50.206;8.196;2023-08-17T07:29:35;7.47;;;6.77;;
635;SDS011;302;50.206;8.196;2023-08-17T07:32:00;7.22;;;6.60;;
635;SDS011;302;50.206;8.196;2023-08-17T07:34:27;6.20;;;5.70;;
635;SDS011;302;50.206;8.196;2023-08-17T07:36:52;6.10;;;5.60;;
635;SDS011;302;50.206;8.196;2023-08-17T07:39:17;5.97;;;5.40;;
635;SDS011;302;50.206;8.196;2023-08-17T07:41:43;6.43;;;5.88;;
635;SDS011;302;50.206;8.196;2023-08-17T07:44:08;5.60;;;5.17;;
635;SDS011;302;50.206;8.196;2023-08-17T07:46:34;4.97;;;4.57;;
635;SDS011;302;50.206;8.196;2023-08-17T07:48:59;4.50;;;4.10;;
635;SDS011;302;50.206;8.196;2023-08-17T07:51:24;4.40;;;4.10;;
635;SDS011;302;50.206;8.196;2023-08-17T07:53:49;4.37;;;4.07;;
635;SDS011;302;50.206;8.196;2023-08-17T07:56:14;3.87;;;3.60;;
635;SDS011;302;50.206;8.196;2023-08-17T07:58:39;3.30;;;3.10;;
635;SDS011;302;50.206;8.196;2023-08-17T08:01:05;3.00;;;2.80;;
635;SDS011;302;50.206;8.196;2023-08-17T08:03:30;4.47;;;3.20;;
635;SDS011;302;50.206;8.196;2023-08-17T08:05:55;3.60;;;3.30;;
635;SDS011;302;50.206;8.196;2023-08-17T08:08:21;3.00;;;2.70;;
635;SDS011;302;50.206;8.196;2023-08-17T08:10:46;2.90;;;2.70;;
635;SDS011;302;50.206;8.196;2023-08-17T08:13:11;3.67;;;3.40;;
635;SDS011;302;50.206;8.196;2023-08-17T08:15:36;3.40;;;3.10;;
635;SDS011;302;50.206;8.196;2023-08-17T08:18:01;3.90;;;3.60;;
635;SDS011;302;50.206;8.196;2023-08-17T08:20:26;3.30;;;3.10;;
635;SDS011;302;50.206;8.196;2023-08-17T08:22:52;3.33;;;3.03;;
635;SDS011;302;50.206;8.196;2023-08-17T08:25:17;3.03;;;2.83;;
635;SDS011;302;50.206;8.196;2023-08-17T08:27:42;4.05;;;3.10;;
635;SDS011;302;50.206;8.196;2023-08-17T08:30:07;3.00;;;2.63;;
635;SDS011;302;50.206;8.196;2023-08-17T08:32:32;2.83;;;2.60;;
635;SDS011;302;50.206;8.196;2023-08-17T08:34:58;3.10;;;2.80;;
635;SDS011;302;50.206;8.196;2023-08-17T08:37:23;2.60;;;2.40;;
635;SDS011;302;50.206;8.196;2023-08-17T08:39:52;2.70;;;2.50;;
635;SDS011;302;50.206;8.196;2023-08-17T08:42:18;4.00;;;3.63;;
635;SDS011;302;50.206;8.196;2023-08-17T08:44:44;2.40;;;2.20;;
635;SDS011;302;50.206;8.196;2023-08-17T08:47:09;2.40;;;1.93;;
635;SDS011;302;50.206;8.196;2023-08-17T08:49:36;2.83;;;2.63;;
635;SDS011;302;50.206;8.196;2023-08-17T08:52:04;2.90;;;2.70;;
635;SDS011;302;50.206;8.196;2023-08-17T08:54:31;2.40;;;2.30;;
635;SDS011;302;50.206;8.196;2023-08-17T08:56:59;3.60;;;3.30;;
635;SDS011;302;50.206;8.196;2023-08-17T08:59:24;2.77;;;2.57;;
635;SDS011;302;50.206;8.196;2023-08-17T09:01:51;2.60;;;2.30;;
635;SDS011;302;50.206;8.196;2023-08-17T09:04:17;2.60;;;2.40;;
635;SDS011;302;50.206;8.196;2023-08-17T09:06:42;2.17;;;2.00;;
635;SDS011;302;50.206;8.196;2023-08-17T09:09:07;2.67;;;2.47;;
635;SDS011;302;50.206;8.196;2023-08-17T09:11:33;2.73;;;2.50;;
635;SDS011;302;50.206;8.196;2023-08-17T09:13:58;2.40;;;2.30;;
635;SDS011;302;50.206;8.196;2023-08-17T09:16:23;2.77;;;2.20;;
635;SDS011;302;50.206;8.196;2023-08-17T09:18:48;3.40;;;2.97;;
635;SDS011;302;50.206;8.196;2023-08-17T09:21:23;3.40;;;3.10;;
635;SDS011;302;50.206;8.196;2023-08-17T09:23:54;3.13;;;2.93;;
635;SDS011;302;50.206;8.196;2023-08-17T09:26:20;2.63;;;2.43;;
635;SDS011;302;50.206;8.196;2023-08-17T09:28:48;2.80;;;2.60;;
635;SDS011;302;50.206;8.196;2023-08-17T09:31:13;3.03;;;2.83;;
635;SDS011;302;50.206;8.196;2023-08-17T09:33:39;2.83;;;2.63;;
635;SDS011;302;50.206;8.196;2023-08-17T09:36:04;2.90;;;2.70;;
635;SDS011;302;50.206;8.196;2023-08-17T09:38:29;3.80;;;2.80;;
635;SDS011;302;50.206;8.196;2023-08-17T09:40:55;3.20;;;2.90;;
635;SDS011;302;50.206;8.196;2023-08-17T09:43:21;2.97;;;2.77;;
635;SDS011;302;50.206;8.196;2023-08-17T09:45:47;3.83;;;3.40;;
635;SDS011;302;50.206;8.196;2023-08-17T09:48:15;5.00;;;4.00;;
635;SDS011;302;50.206;8.196;2023-08-17T09:50:41;3.10;;;2.90;;
635;SDS011;302;50.206;8.196;2023-08-17T09:53:07;3.83;;;3.53;;
635;SDS011;302;50.206;8.196;2023-08-17T09:55:32;3.28;;;3.05;;
635;SDS011;302;50.206;8.196;2023-08-17T09:57:59;3.23;;;2.93;;
635;SDS011;302;50.206;8.196;2023-08-17T10:00:24;4.32;;;3.92;;
635;SDS011;302;50.206;8.196;2023-08-17T10:02:50;3.17;;;2.97;;
635;SDS011;302;50.206;8.196;2023-08-17T10:05:16;4.43;;;4.00;;
635;SDS011;302;50.206;8.196;2023-08-17T10:07:43;3.10;;;2.90;;
635;SDS011;302;50.206;8.196;2023-08-17T10:10:09;3.53;;;3.10;;
635;SDS011;302;50.206;8.196;2023-08-17T10:12:36;3.90;;;3.60;;
635;SDS011;302;50.206;8.196;2023-08-17T10:15:02;3.40;;;3.10;;
635;SDS011;302;50.206;8.196;2023-08-17T10:17:30;4.13;;;3.30;;
635;SDS011;302;50.206;8.196;2023-08-17T10:19:57;2.93;;;2.73;;
635;SDS011;302;50.206;8.196;2023-08-17T10:25:08;2.60;;;2.40;;
635;SDS011;302;50.206;8.196;2023-08-17T10:27:34;2.20;;;2.10;;
635;SDS011;302;50.206;8.196;2023-08-17T10:29:59;2.83;;;2.63;;
635;SDS011;302;50.206;8.196;2023-08-17T10:32:26;2.93;;;2.50;;
635;SDS011;302;50.206;8.196;2023-08-17T10:34:52;2.70;;;2.50;;
635;SDS011;302;50.206;8.196;2023-08-17T10:37:18;2.60;;;2.40;;
635;SDS011;302;50.206;8.196;2023-08-17T10:39:47;2.63;;;2.43;;
635;SDS011;302;50.206;8.196;2023-08-17T10:42:13;2.50;;;2.30;;
635;SDS011;302;50.206;8.196;2023-08-17T10:47:25;2.13;;;2.00;;
635;SDS011;302;50.206;8.196;2023-08-17T10:49:57;2.70;;;2.50;;
635;SDS011;302;50.206;8.196;2023-08-17T10:52:30;2.47;;;2.27;;
635;SDS011;302;50.206;8.196;2023-08-17T10:54:55;2.30;;;2.10;;
635;SDS011;302;50.206;8.196;2023-08-17T10:57:37;2.37;;;2.27;;
635;SDS011;302;50.206;8.196;2023-08-17T11:02:35;2.77;;;2.57;;
635;SDS011;302;50.206;8.196;2023-08-17T11:05:01;3.03;;;2.83;;
635;SDS011;302;50.206;8.196;2023-08-17T11:07:27;2.53;;;2.33;;
635;SDS011;302;50.206;8.196;2023-08-17T11:09:53;2.23;;;2.13;;
635;SDS011;302;50.206;8.196;2023-08-17T11:12:25;2.70;;;2.50;;
635;SDS011;302;50.206;8.196;2023-08-17T11:14:50;2.33;;;2.20;;
635;SDS011;302;50.206;8.196;2023-08-17T11:17:15;2.53;;;2.33;;
635;SDS011;302;50.206;8.196;2023-08-17T11:19:40;2.60;;;2.45;;
635;SDS011;302;50.206;8.196;2023-08-17T11:22:05;3.13;;;2.77;;
635;SDS011;302;50.206;8.196;2023-08-17T11:24:31;2.90;;;2.70;;
635;SDS011;302;50.206;8.196;2023-08-17T11:26:56;2.93;;;2.73;;
635;SDS011;302;50.206;8.196;2023-08-17T11:29:21;2.60;;;2.40;;
635;SDS011;302;50.206;8.196;2023-08-17T11:31:49;3.03;;;2.30;;
635;SDS011;302;50.206;8.196;2023-08-17T11:34:14;3.00;;;2.80;;
635;SDS011;302;50.206;8.196;2023-08-17T11:36:40;2.80;;;2.60;;
635;SDS011;302;50.206;8.196;2023-08-17T11:39:05;2.90;;;2.70;;
635;SDS011;302;50.206;8.196;2023-08-17T11:41:30;3.20;;;2.90;;
635;SDS011;302;50.206;8.196;2023-08-17T11:43:56;2.70;;;2.50;;
635;SDS011;302;50.206;8.196;2023-08-17T11:46:23;3.07;;;2.77;;
635;SDS011;302;50.206;8.196;2023-08-17T11:48:50;2.93;;;2.33;;
635;SDS011;302;50.206;8.196;2023-08-17T11:51:27;2.67;;;2.47;;
635;SDS011;302;50.206;8.196;2023-08-17T11:53:52;2.10;;;2.00;;
635;SDS011;302;50.206;8.196;2023-08-17T11:56:17;3.05;;;2.13;;
635;SDS011;302;50.206;8.196;2023-08-17T11:58:43;2.00;;;1.90;;
635;SDS011;302;50.206;8.196;2023-08-17T12:01:09;3.00;;;2.70;;
635;SDS011;302;50.206;8.196;2023-08-17T12:03:35;2.07;;;1.97;;
635;SDS011;302;50.206;8.196;2023-08-17T12:06:00;2.60;;;2.40;;
635;SDS011;302;50.206;8.196;2023-08-17T12:08:25;2.20;;;2.10;;
635;SDS011;302;50.206;8.196;2023-08-17T12:10:50;3.10;;;2.40;;
635;SDS011;302;50.206;8.196;2023-08-17T12:13:17;2.50;;;2.40;;
635;SDS011;302;50.206;8.196;2023-08-17T12:15:42;2.40;;;2.20;;
635;SDS011;302;50.206;8.196;2023-08-17T12:18:07;2.27;;;2.17;;
635;SDS011;302;50.206;8.196;2023-08-17T12:20:32;4.32;;;2.25;;
635;SDS011;302;50.206;8.196;2023-08-17T12:23:00;2.60;;;2.40;;
635;SDS011;302;50.206;8.196;2023-08-17T12:25:26;2.90;;;2.70;;
635;SDS011;302;50.206;8.196;2023-08-17T12:27:52;2.30;;;2.10;;
635;SDS011;302;50.206;8.196;2023-08-17T12:30:24;2.90;;;2.70;;
635;SDS011;302;50.206;8.196;2023-08-17T12:32:50;2.17;;;2.07;;
635;SDS011;302;50.206;8.196;2023-08-17T12:35:15;2.30;;;2.20;;
635;SDS011;302;50.206;8.196;2023-08-17T12:37:40;2.57;;;2.43;;
635;SDS011;302;50.206;8.196;2023-08-17T12:40:05;2.60;;;2.40;;
635;SDS011;302;50.206;8.196;2023-08-17T12:42:32;3.10;;;2.20;;
635;SDS011;302;50.206;8.196;2023-08-17T12:44:58;2.25;;;2.05;;
635;SDS011;302;50.206;8.196;2023-08-17T12:47:23;2.60;;;2.20;;
635;SDS011;302;50.206;8.196;2023-08-17T12:49:49;3.00;;;2.70;;
635;SDS011;302;50.206;8.196;2023-08-17T12:52:14;2.25;;;2.15;;
635;SDS011;302;50.206;8.196;2023-08-17T12:54:39;2.33;;;2.22;;
635;SDS011;302;50.206;8.196;2023-08-17T12:57:04;2.63;;;2.43;;
635;SDS011;302;50.206;8.196;2023-08-17T12:59:29;1.83;;;1.73;;
635;SDS011;302;50.206;8.196;2023-08-17T13:01:55;2.17;;;2.03;;
635;SDS011;302;50.206;8.196;2023-08-17T13:04:20;3.05;;;2.30;;
635;SDS011;302;50.206;8.196;2023-08-17T13:06:45;2.15;;;2.05;;
635;SDS011;302;50.206;8.196;2023-08-17T13:09:12;2.57;;;2.40;;
635;SDS011;302;50.206;8.196;2023-08-17T13:11:39;2.40;;;2.20;;
635;SDS011;302;50.206;8.196;2023-08-17T13:14:04;2.40;;;2.30;;
635;SDS011;302;50.206;8.196;2023-08-17T13:16:29;2.80;;;2.60;;
635;SDS011;302;50.206;8.196;2023-08-17T13:18:55;2.77;;;2.40;;
635;SDS011;302;50.206;8.196;2023-08-17T13:21:20;2.73;;;2.53;;
635;SDS011;302;50.206;8.196;2023-08-17T13:23:45;2.30;;;2.20;;
635;SDS011;302;50.206;8.196;2023-08-17T13:26:10;2.90;;;2.70;;
635;SDS011;302;50.206;8.196;2023-08-17T13:28:35;2.67;;;2.47;;
635;SDS011;302;50.206;8.196;2023-08-17T13:31:00;2.88;;;2.33;;
635;SDS011;302;50.206;8.196;2023-08-17T13:33:26;2.37;;;2.17;;
635;SDS011;302;50.206;8.196;2023-08-17T13:35:51;2.42;;;2.22;;
635;SDS011;302;50.206;8.196;2023-08-17T13:38:16;2.70;;;2.60;;
635;SDS011;302;50.206;8.196;2023-08-17T13:40:41;3.50;;;2.53;;
635;SDS011;302;50.206;8.196;2023-08-17T13:43:06;2.67;;;2.47;;
635;SDS011;302;50.206;8.196;2023-08-17T13:45:37;2.60;;;2.40;;
635;SDS011;302;50.206;8.196;2023-08-17T13:48:02;3.03;;;2.83;;
635;SDS011;302;50.206;8.196;2023-08-17T13:50:28;2.53;;;2.33;;
635;SDS011;302;50.206;8.196;2023-08-17T13:52:53;2.42;;;2.22;;
635;SDS011;302;50.206;8.196;2023-08-17T13:55:18;2.40;;;2.20;;
635;SDS011;302;50.206;8.196;2023-08-17T13:57:43;2.50;;;2.30;;
635;SDS011;302;50.206;8.196;2023-08-17T14:00:09;2.20;;;2.00;;
635;SDS011;302;50.206;8.196;2023-08-17T14:02:34;2.53;;;2.37;;
635;SDS011;302;50.206;8.196;2023-08-17T14:04:59;2.90;;;2.70;;
635;SDS011;302;50.206;8.196;2023-08-17T14:07:24;2.25;;;2.15;;
635;SDS011;302;50.206;8.196;2023-08-17T14:09:49;3.13;;;2.90;;
635;SDS011;302;50.206;8.196;2023-08-17T14:12:15;2.72;;;2.53;;
635;SDS011;302;50.206;8.196;2023-08-17T14:14:40;3.20;;;2.20;;
635;SDS011;302;50.206;8.196;2023-08-17T14:17:05;3.35;;;3.15;;
635;SDS011;302;50.206;8.196;2023-08-17T14:19:30;3.30;;;2.55;;
635;SDS011;302;50.206;8.196;2023-08-17T14:24:40;2.40;;;2.30;;
635;SDS011;302;50.206;8.196;2023-08-17T14:27:05;2.92;;;2.72;;
635;SDS011;302;50.206;8.196;2023-08-17T14:29:30;2.75;;;2.53;;
635;SDS011;302;50.206;8.196;2023-08-17T14:31:55;2.75;;;2.55;;
635;SDS011;302;50.206;8.196;2023-08-17T14:34:21;2.90;;;2.67;;
635;SDS011;302;50.206;8.196;2023-08-17T14:36:46;2.83;;;2.63;;
635;SDS011;302;50.206;8.196;2023-08-17T14:39:11;2.43;;;2.23;;
635;SDS011;302;50.206;8.196;2023-08-17T14:41:36;2.70;;;2.10;;
635;SDS011;302;50.206;8.196;2023-08-17T14:44:02;2.00;;;1.90;;
635;SDS011;302;50.206;8.196;2023-08-17T14:46:27;2.57;;;2.30;;
635;SDS011;302;50.206;8.196;2023-08-17T14:48:53;3.20;;;2.60;;
635;SDS011;302;50.206;8.196;2023-08-17T14:51:18;2.30;;;2.10;;
635;SDS011;302;50.206;8.196;2023-08-17T14:53:43;2.40;;;2.20;;
635;SDS011;302;50.206;8.196;2023-08-17T14:56:09;2.50;;;2.30;;
635;SDS011;302;50.206;8.196;2023-08-17T14:58:34;2.40;;;2.20;;
635;SDS011;302;50.206;8.196;2023-08-17T15:00:59;2.50;;;2.40;;
635;SDS011;302;50.206;8.196;2023-08-17T15:03:25;3.40;;;2.33;;
635;SDS011;302;50.206;8.196;2023-08-17T15:05:51;2.70;;;2.47;;
635;SDS011;302;50.206;8.196;2023-08-17T15:08:16;4.63;;;2.63;;
635;SDS011;302;50.206;8.196;2023-08-17T15:10:41;2.67;;;2.47;;
635;SDS011;302;50.206;8.196;2023-08-17T15:13:06;4.33;;;2.77;;
635;SDS011;302;50.206;8.196;2023-08-17T15:15:31;3.00;;;2.80;;
635;SDS011;302;50.206;8.196;2023-08-17T15:17:57;2.50;;;2.40;;
635;SDS011;302;50.206;8.196;2023-08-17T15:20:22;2.80;;;2.60;;
635;SDS011;302;50.206;8.196;2023-08-17T15:22:47;2.50;;;2.40;;
635;SDS011;302;50.206;8.196;2023-08-17T15:25:12;2.80;;;2.70;;
635;SDS011;302;50.206;8.196;2023-08-17T15:27:37;2.90;;;2.70;;
635;SDS011;302;50.206;8.196;2023-08-17T15:30:02;2.73;;;2.53;;
635;SDS011;302;50.206;8.196;2023-08-17T15:32:28;2.77;;;2.57;;
635;SDS011;302;50.206;8.196;2023-08-17T15:34:53;2.50;;;2.40;;
635;SDS011;302;50.206;8.196;2023-08-17T15:37:18;2.60;;;2.50;;
635;SDS011;302;50.206;8.196;2023-08-17T15:39:43;2.63;;;2.50;;
635;SDS011;302;50.206;8.196;2023-08-17T15:42:08;2.67;;;2.57;;
635;SDS011;302;50.206;8.196;2023-08-17T15:44:34;2.90;;;2.80;;